createdAt,value
2022-08-17T00:00:34.398Z,6.47
2022-08-17T00:03:10.010Z,6.30
2022-08-17T00:05:42.639Z,7.00
2022-08-17T00:08:10.573Z,6.50
2022-08-17T00:10:39.381Z,6.93
2022-08-17T00:13:11.120Z,5.82
2022-08-17T00:15:39.690Z,5.35
2022-08-17T00:19:01.628Z,4.60
2022-08-17T00:20:58.448Z,3.67
2022-08-17T00:23:27.492Z,4.13
2022-08-17T00:25:55.770Z,3.85
2022-08-17T00:28:23.655Z,4.15
2022-08-17T00:30:53.832Z,3.65
2022-08-17T00:33:25.226Z,3.53
2022-08-17T00:35:54.112Z,3.60
2022-08-17T00:38:24.145Z,4.47
2022-08-17T00:40:55.856Z,6.20
2022-08-17T00:43:35.068Z,5.68
2022-08-17T00:46:06.324Z,4.63
2022-08-17T00:48:34.237Z,4.10
2022-08-17T00:51:08.186Z,3.97
2022-08-17T00:53:41.824Z,3.78
2022-08-17T00:56:15.580Z,3.67
2022-08-17T00:58:43.827Z,3.80
2022-08-17T01:01:13.131Z,4.07
2022-08-17T01:03:51.449Z,3.45
2022-08-17T01:06:19.534Z,3.83
2022-08-17T01:08:49.922Z,4.00
2022-08-17T01:11:26.353Z,4.65
2022-08-17T01:13:54.626Z,5.43
2022-08-17T01:16:25.913Z,5.50
2022-08-17T01:18:56.527Z,5.20
2022-08-17T01:21:32.834Z,5.57
2022-08-17T01:24:02.744Z,4.75
2022-08-17T01:26:33.726Z,5.20
2022-08-17T01:29:02.621Z,4.88
2022-08-17T01:31:35.726Z,5.03
2022-08-17T01:34:07.825Z,4.95
2022-08-17T01:36:36.096Z,5.10
2022-08-17T01:39:07.666Z,4.80
2022-08-17T01:41:37.974Z,5.07
2022-08-17T01:44:08.245Z,4.25
2022-08-17T01:46:38.267Z,4.05
2022-08-17T01:49:08.411Z,3.90
2022-08-17T01:51:36.481Z,4.50
2022-08-17T01:54:08.054Z,4.88
2022-08-17T01:56:39.800Z,5.00
2022-08-17T01:59:09.197Z,5.10
2022-08-17T02:01:38.016Z,4.30
2022-08-17T02:04:08.312Z,4.90
2022-08-17T02:06:45.022Z,4.63
2022-08-17T02:09:25.892Z,4.40
2022-08-17T02:11:54.812Z,3.63
2022-08-17T02:14:24.729Z,3.78
2022-08-17T02:16:53.147Z,3.60
2022-08-17T02:19:21.792Z,4.05
2022-08-17T02:21:52.844Z,3.75
2022-08-17T02:25:00.454Z,3.90
2022-08-17T02:27:13.700Z,3.60
2022-08-17T02:29:41.667Z,4.00
2022-08-17T02:32:25.381Z,3.72
2022-08-17T02:34:56.905Z,3.50
2022-08-17T02:37:25.483Z,4.18
2022-08-17T02:39:56.811Z,3.55
2022-08-17T02:42:29.123Z,3.80
2022-08-17T02:44:56.946Z,3.50
2022-08-17T02:47:25.156Z,3.83
2022-08-17T02:49:55.417Z,3.95
2022-08-17T02:52:42.533Z,4.38
2022-08-17T02:55:15.952Z,4.63
2022-08-17T02:57:44.310Z,4.90
2022-08-17T03:00:15.094Z,4.32
2022-08-17T03:02:45.054Z,4.72
2022-08-17T03:05:14.742Z,5.95
2022-08-17T03:07:43.057Z,5.95
2022-08-17T03:10:13.117Z,6.07
2022-08-17T03:12:43.323Z,6.43
2022-08-17T03:15:13.765Z,5.30
2022-08-17T03:17:41.809Z,4.50
2022-08-17T03:20:10.248Z,4.25
2022-08-17T03:22:40.404Z,4.03
2022-08-17T03:25:10.607Z,4.35
2022-08-17T03:27:42.066Z,4.45
2022-08-17T03:30:14.099Z,3.97
2022-08-17T03:32:45.139Z,3.60
2022-08-17T03:35:15.835Z,3.88
2022-08-17T03:37:47.013Z,3.75
2022-08-17T03:40:57.810Z,3.80
2022-08-17T03:43:18.465Z,3.88
2022-08-17T03:46:03.730Z,3.60
2022-08-17T03:48:50.973Z,4.00
2022-08-17T03:51:38.906Z,3.95
2022-08-17T03:54:24.809Z,4.50
2022-08-17T03:57:01.473Z,5.28
2022-08-17T03:59:31.112Z,5.30
2022-08-17T04:02:03.728Z,5.40
2022-08-17T04:04:31.541Z,5.40
2022-08-17T04:06:59.545Z,5.15
2022-08-17T04:09:27.564Z,4.85
2022-08-17T04:11:55.350Z,5.07
2022-08-17T04:14:25.300Z,4.22
2022-08-17T04:16:54.474Z,4.03
2022-08-17T04:19:22.296Z,6.05
2022-08-17T04:21:50.150Z,6.80
2022-08-17T04:24:17.990Z,5.95
2022-08-17T04:26:52.547Z,6.03
2022-08-17T04:29:21.537Z,5.57
2022-08-17T04:31:49.757Z,5.60
2022-08-17T04:34:19.670Z,5.82
2022-08-17T04:36:50.120Z,5.70
2022-08-17T04:39:18.320Z,5.43
2022-08-17T04:42:03.709Z,5.45
2022-08-17T04:44:37.765Z,5.25
2022-08-17T04:47:07.153Z,5.22
2022-08-17T04:49:39.813Z,4.15
2022-08-17T04:52:08.146Z,4.05
2022-08-17T04:54:55.988Z,3.72
2022-08-17T04:57:23.788Z,3.70
2022-08-17T04:59:51.641Z,4.78
2022-08-17T05:02:19.461Z,4.28
2022-08-17T05:04:48.628Z,3.80
2022-08-17T05:07:21.100Z,3.97
2022-08-17T05:09:50.957Z,3.83
2022-08-17T05:12:18.816Z,3.67
2022-08-17T05:14:46.623Z,3.55
2022-08-17T05:17:14.596Z,3.60
2022-08-17T05:19:42.419Z,3.90
2022-08-17T05:22:11.601Z,5.10
2022-08-17T05:24:43.731Z,4.05
2022-08-17T05:27:22.753Z,3.90
2022-08-17T05:29:51.493Z,3.40
2022-08-17T05:32:38.001Z,3.83
2022-08-17T05:35:08.537Z,3.50
2022-08-17T05:37:39.131Z,3.42
2022-08-17T05:40:08.651Z,3.33
2022-08-17T05:42:36.572Z,3.20
2022-08-17T05:45:04.988Z,3.17
2022-08-17T05:47:32.832Z,4.03
2022-08-17T05:50:02.501Z,4.35
2022-08-17T05:52:47.975Z,4.40
2022-08-17T05:55:24.192Z,4.07
2022-08-17T05:58:08.437Z,3.90
2022-08-17T06:00:44.225Z,4.10
2022-08-17T06:03:28.090Z,3.50
2022-08-17T06:06:08.760Z,3.80
2022-08-17T06:08:51.668Z,4.20
2022-08-17T06:11:27.598Z,4.13
2022-08-17T06:14:10.860Z,4.38
2022-08-17T06:16:42.457Z,4.50
2022-08-17T06:19:17.054Z,4.30
2022-08-17T06:21:48.732Z,3.92
2022-08-17T06:24:29.536Z,3.35
2022-08-17T06:27:07.223Z,3.50
2022-08-17T06:29:48.930Z,4.40
2022-08-17T06:32:17.242Z,4.00
2022-08-17T06:34:47.060Z,3.83
2022-08-17T06:37:28.943Z,3.42
2022-08-17T06:40:13.182Z,3.00
2022-08-17T06:43:02.173Z,3.20
2022-08-17T06:45:38.905Z,3.00
2022-08-17T06:48:13.901Z,4.95
2022-08-17T06:50:48.073Z,3.35
2022-08-17T06:53:24.383Z,3.33
2022-08-17T06:55:59.772Z,3.30
2022-08-17T06:58:31.229Z,3.63
2022-08-17T07:01:05.179Z,3.17
2022-08-17T07:03:37.970Z,2.95
2022-08-17T07:06:13.597Z,3.00
2022-08-17T07:08:50.484Z,2.85
2022-08-17T07:11:27.146Z,3.10
2022-08-17T07:14:04.339Z,3.30
2022-08-17T07:16:37.009Z,2.72
2022-08-17T07:19:07.295Z,3.28
2022-08-17T07:21:47.705Z,5.40
2022-08-17T07:24:37.230Z,3.83
2022-08-17T07:27:15.923Z,3.30
2022-08-17T07:29:49.435Z,3.10
2022-08-17T07:32:21.157Z,3.20
2022-08-17T07:35:15.228Z,3.40
2022-08-17T07:37:45.677Z,2.95
2022-08-17T07:40:29.598Z,3.10
2022-08-17T07:43:23.031Z,3.28
2022-08-17T07:46:22.201Z,6.43
2022-08-17T07:48:52.721Z,4.95
2022-08-17T07:51:26.096Z,4.47
2022-08-17T07:54:09.147Z,4.00
2022-08-17T07:56:45.531Z,3.42
2022-08-17T07:59:17.994Z,3.50
2022-08-17T08:02:06.116Z,3.60
2022-08-17T08:07:29.463Z,3.72
2022-08-17T08:10:10.611Z,4.00
2022-08-17T08:12:41.165Z,4.00
2022-08-17T08:15:17.669Z,3.60
2022-08-17T08:17:55.482Z,3.67
2022-08-17T08:20:51.284Z,3.55
2022-08-17T08:23:39.492Z,4.00
2022-08-17T08:26:20.279Z,5.53
2022-08-17T08:29:00.432Z,3.88
2022-08-17T08:31:42.503Z,4.28
2022-08-17T08:34:58.843Z,4.35
2022-08-17T08:37:32.252Z,5.00
2022-08-17T08:40:08.655Z,4.45
2022-08-17T08:42:43.155Z,5.40
2022-08-17T08:45:16.865Z,5.20
2022-08-17T08:48:05.884Z,4.65
2022-08-17T08:50:42.894Z,4.70
2022-08-17T08:53:21.841Z,5.10
2022-08-17T08:55:55.875Z,6.43
2022-08-17T08:58:42.079Z,5.13
2022-08-17T09:01:18.032Z,5.43
2022-08-17T09:04:21.531Z,5.03
2022-08-17T09:07:02.248Z,5.60
2022-08-17T09:09:43.673Z,5.22
2022-08-17T09:12:22.554Z,5.25
2022-08-17T09:14:57.839Z,5.40
2022-08-17T09:17:34.965Z,5.40
2022-08-17T09:20:11.913Z,5.55
2022-08-17T09:22:59.384Z,6.28
2022-08-17T09:25:32.771Z,6.10
2022-08-17T09:28:04.822Z,6.55
2022-08-17T09:30:39.038Z,6.50
2022-08-17T09:33:09.211Z,6.70
2022-08-17T09:35:44.724Z,6.60
2022-08-17T09:38:22.504Z,6.72
2022-08-17T09:40:57.536Z,7.18
2022-08-17T09:43:35.098Z,6.93
2022-08-17T09:46:09.884Z,6.82
2022-08-17T09:48:42.865Z,6.75
2022-08-17T09:51:17.142Z,6.90
2022-08-17T09:53:45.353Z,7.05
2022-08-17T09:56:34.487Z,7.15
2022-08-17T09:59:28.507Z,6.97
2022-08-17T10:04:56.363Z,7.03
2022-08-17T10:07:34.094Z,7.45
2022-08-17T10:10:13.559Z,6.85
2022-08-17T10:12:53.326Z,7.45
2022-08-17T10:15:37.560Z,7.15
2022-08-17T10:18:18.525Z,7.22
2022-08-17T10:21:15.768Z,7.40
2022-08-17T10:24:05.176Z,7.10
2022-08-17T10:26:55.784Z,7.10
2022-08-17T10:29:29.485Z,7.10
2022-08-17T10:32:10.685Z,7.45
2022-08-17T10:34:59.447Z,6.63
2022-08-17T10:37:43.803Z,6.55
2022-08-17T10:40:24.615Z,6.30
2022-08-17T10:43:00.268Z,6.20
2022-08-17T10:45:35.690Z,5.90
2022-08-17T10:48:28.479Z,6.18
2022-08-17T10:51:07.386Z,6.30
2022-08-17T10:54:01.633Z,6.45
2022-08-17T10:56:50.346Z,6.57
2022-08-17T10:59:51.421Z,6.85
2022-08-17T11:02:26.102Z,7.10
2022-08-17T11:05:20.464Z,6.63
2022-08-17T11:08:05.333Z,7.20
2022-08-17T11:11:07.698Z,7.72
2022-08-17T11:13:45.810Z,7.40
2022-08-17T11:16:34.122Z,7.80
2022-08-17T11:19:36.572Z,7.97
2022-08-17T11:22:23.232Z,7.93
2022-08-17T11:24:54.669Z,7.43
2022-08-17T11:27:28.129Z,7.72
2022-08-17T11:30:02.124Z,7.55
2022-08-17T11:35:39.936Z,8.02
2022-08-17T11:38:18.869Z,7.80
2022-08-17T11:41:09.390Z,7.80
2022-08-17T11:44:15.293Z,7.50
2022-08-17T11:47:16.454Z,7.38
2022-08-17T11:50:18.827Z,7.13
2022-08-17T11:52:49.871Z,6.78
2022-08-17T11:55:51.077Z,7.60
2022-08-17T11:58:41.417Z,6.95
2022-08-17T12:01:13.447Z,7.72
2022-08-17T12:03:54.152Z,6.63
2022-08-17T12:06:44.913Z,7.43
2022-08-17T12:09:18.278Z,6.78
2022-08-17T12:12:01.687Z,7.00
2022-08-17T12:15:08.032Z,6.85
2022-08-17T12:17:41.389Z,5.97
2022-08-17T12:20:17.645Z,6.10
2022-08-17T12:22:54.722Z,6.45
2022-08-17T12:25:31.392Z,6.72
2022-08-17T12:28:05.286Z,6.70
2022-08-17T12:30:35.385Z,6.90
2022-08-17T12:33:03.286Z,6.78
2022-08-17T12:35:35.457Z,6.35
2022-08-17T12:38:06.411Z,6.78
2022-08-17T12:40:58.153Z,5.95
2022-08-17T12:43:30.432Z,6.57
2022-08-17T12:46:01.076Z,5.72
2022-08-17T12:48:58.932Z,6.50
2022-08-17T12:51:30.010Z,6.57
2022-08-17T12:53:58.005Z,6.95
2022-08-17T12:56:25.889Z,6.63
2022-08-17T12:58:55.561Z,6.03
2022-08-17T13:01:25.249Z,6.85
2022-08-17T13:03:57.135Z,6.45
2022-08-17T13:06:32.607Z,7.10
2022-08-17T13:09:11.309Z,6.95
2022-08-17T13:11:48.581Z,6.90
2022-08-17T13:14:18.367Z,6.35
2022-08-17T13:16:52.756Z,6.50
2022-08-17T13:19:39.746Z,7.20
2022-08-17T13:22:12.389Z,8.65
2022-08-17T13:24:52.886Z,7.25
2022-08-17T13:27:22.829Z,8.15
2022-08-17T13:29:53.914Z,7.97
2022-08-17T13:32:24.054Z,9.13
2022-08-17T13:35:13.796Z,9.32
2022-08-17T13:38:02.209Z,8.88
2022-08-17T13:40:36.562Z,8.88
2022-08-17T13:43:05.445Z,8.75
2022-08-17T13:45:53.314Z,7.45
2022-08-17T13:48:25.705Z,7.55
2022-08-17T13:51:29.720Z,7.53
2022-08-17T13:54:06.559Z,7.70
2022-08-17T13:56:51.970Z,8.77
2022-08-17T13:59:48.171Z,7.72
2022-08-17T14:02:20.368Z,8.05
2022-08-17T14:04:50.259Z,7.00
2022-08-17T14:07:28.999Z,7.40
2022-08-17T14:10:00.918Z,8.02
2022-08-17T14:12:32.011Z,8.02
2022-08-17T14:15:00.854Z,7.75
2022-08-17T14:17:36.308Z,7.55
2022-08-17T14:20:07.589Z,7.55
2022-08-17T14:22:38.550Z,7.30
2022-08-17T14:25:10.597Z,6.72
2022-08-17T14:27:43.580Z,6.90
2022-08-17T14:30:23.056Z,6.85
2022-08-17T14:32:51.903Z,6.93
2022-08-17T14:35:23.020Z,8.13
2022-08-17T14:37:51.427Z,8.15
2022-08-17T14:40:22.574Z,7.72
2022-08-17T14:42:50.833Z,8.27
2022-08-17T14:45:31.723Z,7.53
2022-08-17T14:48:03.896Z,7.60
2022-08-17T14:50:32.118Z,9.05
2022-08-17T14:53:04.313Z,8.50
2022-08-17T14:55:33.749Z,7.30
2022-08-17T14:58:01.921Z,7.80
2022-08-17T15:00:29.782Z,7.97
2022-08-17T15:03:00.013Z,8.13
2022-08-17T15:05:30.493Z,7.97
2022-08-17T15:07:58.648Z,8.05
2022-08-17T15:10:26.524Z,7.60
2022-08-17T15:12:56.111Z,7.57
2022-08-17T15:15:24.376Z,7.43
2022-08-17T15:17:52.300Z,7.72
2022-08-17T15:20:22.763Z,7.47
2022-08-17T15:22:54.908Z,7.88
2022-08-17T15:25:23.226Z,7.78
2022-08-17T15:27:51.816Z,7.68
2022-08-17T15:30:22.077Z,7.70
2022-08-17T15:32:55.061Z,8.50
2022-08-17T15:35:26.882Z,8.07
2022-08-17T15:37:57.107Z,8.07
2022-08-17T15:40:25.094Z,7.57
2022-08-17T15:42:53.005Z,8.02
2022-08-17T15:45:26.599Z,7.78
2022-08-17T15:47:54.500Z,7.95
2022-08-17T15:50:22.596Z,7.60
2022-08-17T15:52:56.399Z,7.10
2022-08-17T15:55:24.967Z,7.10
2022-08-17T15:57:53.269Z,7.20
2022-08-17T16:00:24.059Z,7.43
2022-08-17T16:03:47.108Z,7.90
2022-08-17T16:05:40.758Z,7.32
2022-08-17T16:08:08.850Z,7.30
2022-08-17T16:10:37.165Z,6.97
2022-08-17T16:13:05.815Z,7.18
2022-08-17T16:15:56.648Z,6.88
2022-08-17T16:18:28.246Z,7.05
2022-08-17T16:20:56.400Z,6.75
2022-08-17T16:23:24.949Z,6.70
2022-08-17T16:25:54.443Z,6.70
2022-08-17T16:28:35.849Z,6.95
2022-08-17T16:31:08.203Z,7.55
2022-08-17T16:33:39.501Z,7.13
2022-08-17T16:36:09.047Z,6.80
2022-08-17T16:38:38.529Z,7.25
2022-08-17T16:41:07.754Z,8.52
2022-08-17T16:43:36.207Z,7.78
2022-08-17T16:46:04.241Z,7.20
2022-08-17T16:48:33.533Z,7.93
2022-08-17T16:51:04.116Z,7.70
2022-08-17T16:53:32.828Z,8.23
2022-08-17T16:56:01.296Z,7.88
2022-08-17T16:58:30.258Z,7.53
2022-08-17T17:00:59.598Z,7.65
2022-08-17T17:03:31.372Z,7.15
2022-08-17T17:06:13.581Z,7.63
2022-08-17T17:08:48.393Z,6.82
2022-08-17T17:11:34.045Z,7.10
2022-08-17T17:14:04.941Z,8.00
2022-08-17T17:16:41.075Z,7.45
2022-08-17T17:19:34.529Z,6.90
2022-08-17T17:22:15.253Z,7.18
2022-08-17T17:24:52.618Z,7.78
2022-08-17T17:27:31.783Z,9.98
2022-08-17T17:30:08.556Z,6.78
2022-08-17T17:32:42.188Z,7.55
2022-08-17T17:35:16.357Z,7.40
2022-08-17T17:37:47.196Z,7.32
2022-08-17T17:40:20.363Z,8.00
2022-08-17T17:42:50.139Z,7.97
2022-08-17T17:45:23.416Z,7.43
2022-08-17T17:47:51.798Z,7.47
2022-08-17T17:50:25.804Z,7.85
2022-08-17T17:53:03.117Z,7.80
2022-08-17T17:55:40.588Z,6.65
2022-08-17T17:58:25.411Z,7.30
2022-08-17T18:01:08.151Z,7.05
2022-08-17T18:03:50.571Z,7.50
2022-08-17T18:06:31.115Z,7.53
2022-08-17T18:09:10.234Z,7.95
2022-08-17T18:11:58.985Z,7.72
2022-08-17T18:14:42.992Z,7.70
2022-08-17T18:17:11.098Z,7.82
2022-08-17T18:19:39.938Z,7.72
2022-08-17T18:22:13.096Z,7.90
2022-08-17T18:24:47.035Z,8.18
2022-08-17T18:27:32.188Z,8.18
2022-08-17T18:30:04.596Z,8.07
2022-08-17T18:32:39.921Z,7.47
2022-08-17T18:35:28.622Z,7.88
2022-08-17T18:37:58.834Z,8.73
2022-08-17T18:40:33.167Z,8.50
2022-08-17T18:43:11.952Z,7.45
2022-08-17T18:45:45.622Z,7.55
2022-08-17T18:48:27.453Z,7.90
2022-08-17T18:50:58.549Z,7.97
2022-08-17T18:53:34.295Z,8.85
2022-08-17T18:56:35.040Z,9.38
2022-08-17T18:59:21.885Z,10.18
2022-08-17T19:02:09.968Z,7.95
2022-08-17T19:04:43.775Z,7.70
2022-08-17T19:07:27.846Z,7.55
2022-08-17T19:10:01.862Z,7.35
2022-08-17T19:12:38.111Z,7.20
2022-08-17T19:15:09.416Z,7.15
2022-08-17T19:17:45.615Z,7.00
2022-08-17T19:20:19.697Z,6.82
2022-08-17T19:23:01.425Z,7.80
2022-08-17T19:25:32.888Z,7.88
2022-08-17T19:28:21.708Z,7.00
2022-08-17T19:30:55.660Z,7.40
2022-08-17T19:33:24.061Z,7.15
2022-08-17T19:36:02.489Z,7.22
2022-08-17T19:38:43.168Z,7.22
2022-08-17T19:41:20.781Z,7.60
2022-08-17T19:44:13.076Z,7.10
2022-08-17T19:46:48.528Z,7.22
2022-08-17T19:49:32.908Z,7.50
2022-08-17T19:52:07.609Z,7.85
2022-08-17T19:54:42.084Z,8.07
2022-08-17T19:57:19.216Z,7.80
2022-08-17T19:59:54.609Z,8.55
2022-08-17T20:02:34.616Z,7.32
2022-08-17T20:05:06.413Z,7.82
2022-08-17T20:07:44.604Z,8.40
2022-08-17T20:10:19.107Z,7.93
2022-08-17T20:12:50.722Z,8.10
2022-08-17T20:15:26.188Z,8.43
2022-08-17T20:17:54.793Z,8.60
2022-08-17T20:20:31.865Z,8.13
2022-08-17T20:23:06.795Z,7.97
2022-08-17T20:25:39.264Z,8.40
2022-08-17T20:28:19.047Z,8.40
2022-08-17T20:30:52.319Z,8.35
2022-08-17T20:33:26.401Z,7.80
2022-08-17T20:36:04.438Z,7.75
2022-08-17T20:38:42.499Z,8.40
2022-08-17T20:41:16.546Z,8.45
2022-08-17T20:43:51.340Z,7.82
2022-08-17T20:46:31.306Z,7.93
2022-08-17T20:49:16.999Z,7.90
2022-08-17T20:52:01.317Z,8.15
2022-08-17T20:57:48.488Z,8.00
2022-08-17T21:00:45.858Z,8.23
2022-08-17T21:03:50.200Z,8.30
2022-08-17T21:06:25.968Z,7.90
2022-08-17T21:08:58.819Z,8.33
2022-08-17T21:12:04.083Z,8.88
2022-08-17T21:14:41.865Z,8.13
2022-08-17T21:17:29.462Z,8.48
2022-08-17T21:20:11.358Z,8.25
2022-08-17T21:22:53.720Z,8.93
2022-08-17T21:25:37.094Z,8.48
2022-08-17T21:28:13.273Z,8.48
2022-08-17T21:30:53.632Z,8.27
2022-08-17T21:33:26.772Z,8.27
2022-08-17T21:36:11.130Z,8.07
2022-08-17T21:38:44.974Z,8.27
2022-08-17T21:41:22.050Z,8.52
2022-08-17T21:43:52.555Z,8.07
2022-08-17T21:46:28.722Z,8.93
2022-08-17T21:49:07.255Z,8.65
2022-08-17T21:51:46.495Z,9.45
2022-08-17T21:54:30.834Z,9.27
2022-08-17T21:57:00.613Z,9.50
2022-08-17T21:59:31.721Z,8.77
2022-08-17T22:02:01.703Z,8.32
2022-08-17T22:04:32.617Z,8.90
2022-08-17T22:07:02.450Z,9.07
2022-08-17T22:09:35.642Z,8.25
2022-08-17T22:12:09.012Z,8.93
2022-08-17T22:14:52.798Z,8.82
2022-08-17T22:17:25.386Z,9.07
2022-08-17T22:19:56.786Z,9.50
2022-08-17T22:22:29.715Z,9.82
2022-08-17T22:25:00.685Z,9.77
2022-08-17T22:27:50.357Z,9.23
2022-08-17T22:30:27.659Z,10.02
2022-08-17T22:32:56.180Z,10.02
2022-08-17T22:35:43.105Z,9.75
2022-08-17T22:38:32.886Z,10.15
2022-08-17T22:41:31.985Z,9.85
2022-08-17T22:44:07.387Z,9.25
2022-08-17T22:49:06.887Z,9.95
2022-08-17T22:51:34.896Z,10.52
2022-08-17T22:54:31.452Z,10.27
2022-08-17T22:57:21.616Z,9.98
2022-08-17T22:59:51.589Z,9.70
2022-08-17T23:02:26.432Z,10.05
2022-08-17T23:04:59.044Z,10.25
2022-08-17T23:07:26.828Z,10.30
2022-08-17T23:09:55.342Z,9.93
2022-08-17T23:12:27.564Z,10.35
2022-08-17T23:15:01.572Z,10.25
2022-08-17T23:17:37.072Z,10.00
2022-08-17T23:20:08.429Z,10.27
2022-08-17T23:22:38.301Z,10.75
2022-08-17T23:25:26.357Z,10.70
2022-08-17T23:27:55.741Z,9.98
2022-08-17T23:30:25.282Z,10.73
2022-08-17T23:32:54.207Z,10.73
2022-08-17T23:35:40.388Z,10.85
2022-08-17T23:38:09.802Z,10.70
2022-08-17T23:40:39.395Z,10.95
2022-08-17T23:43:24.021Z,10.73
2022-08-17T23:45:53.937Z,10.25
2022-08-17T23:48:36.010Z,10.27
2022-08-17T23:51:09.452Z,11.05
2022-08-17T23:53:41.774Z,11.43
2022-08-17T23:56:11.349Z,10.27
2022-08-17T23:58:42.983Z,9.95
